sensor_id;sensor_type;location;lat;lon;timestamp;pressure;altitude;pressure_sealevel;temperature;humidity
10606;BME280;5350;42.698;23.148;2023-03-20T00:00:17;93937.53;;;6.22;77.62
10606;BME280;5350;42.698;23.148;2023-03-20T00:02:46;93931.53;;;6.22;78.23
10606;BME280;5350;42.698;23.148;2023-03-20T00:05:18;93932.06;;;6.24;77.71
10606;BME280;5350;42.698;23.148;2023-03-20T00:07:45;93936.44;;;6.13;78.34
10606;BME280;5350;42.698;23.148;2023-03-20T00:10:14;93934.09;;;6.12;77.48
10606;BME280;5350;42.698;23.148;2023-03-20T00:12:41;93936.47;;;6.18;77.70
10606;BME280;5350;42.698;23.148;2023-03-20T00:15:22;93929.97;;;6.21;78.31
10606;BME280;5350;42.698;23.148;2023-03-20T00:17:49;93930.47;;;6.13;77.88
10606;BME280;5350;42.698;23.148;2023-03-20T00:20:16;93932.50;;;6.06;78.65
10606;BME280;5350;42.698;23.148;2023-03-20T00:22:43;93931.97;;;6.04;79.32
10606;BME280;5350;42.698;23.148;2023-03-20T00:25:13;93925.72;;;6.10;78.51
10606;BME280;5350;42.698;23.148;2023-03-20T00:27:41;93924.97;;;6.14;78.41
10606;BME280;5350;42.698;23.148;2023-03-20T00:30:25;93922.84;;;6.11;78.20
10606;BME280;5350;42.698;23.148;2023-03-20T00:32:55;93923.47;;;5.82;82.03
10606;BME280;5350;42.698;23.148;2023-03-20T00:35:25;93921.09;;;5.80;80.64
10606;BME280;5350;42.698;23.148;2023-03-20T00:37:53;93916.66;;;5.81;81.41
10606;BME280;5350;42.698;23.148;2023-03-20T00:40:20;93920.91;;;5.87;81.14
10606;BME280;5350;42.698;23.148;2023-03-20T00:42:50;93922.19;;;5.84;81.18
10606;BME280;5350;42.698;23.148;2023-03-20T00:45:22;93917.25;;;5.88;80.91
10606;BME280;5350;42.698;23.148;2023-03-20T00:47:51;93923.41;;;5.77;80.17
10606;BME280;5350;42.698;23.148;2023-03-20T00:50:20;93925.72;;;5.68;80.77
10606;BME280;5350;42.698;23.148;2023-03-20T00:52:48;93909.03;;;5.69;81.41
10606;BME280;5350;42.698;23.148;2023-03-20T00:55:16;93914.03;;;5.76;80.80
10606;BME280;5350;42.698;23.148;2023-03-20T00:57:45;93907.16;;;5.64;81.22
10606;BME280;5350;42.698;23.148;2023-03-20T01:00:21;93913.94;;;5.60;81.46
10606;BME280;5350;42.698;23.148;2023-03-20T01:02:51;93910.78;;;5.58;81.90
10606;BME280;5350;42.698;23.148;2023-03-20T01:05:19;93914.09;;;5.49;81.73
10606;BME280;5350;42.698;23.148;2023-03-20T01:07:46;93901.81;;;5.44;82.50
10606;BME280;5350;42.698;23.148;2023-03-20T01:10:14;93903.03;;;5.37;83.17
10606;BME280;5350;42.698;23.148;2023-03-20T01:12:43;93892.22;;;5.55;82.60
10606;BME280;5350;42.698;23.148;2023-03-20T01:15:17;93892.56;;;5.68;82.21
10606;BME280;5350;42.698;23.148;2023-03-20T01:17:44;93886.06;;;5.71;81.57
10606;BME280;5350;42.698;23.148;2023-03-20T01:20:17;93886.00;;;5.61;81.65
10606;BME280;5350;42.698;23.148;2023-03-20T01:22:44;93886.16;;;5.44;82.73
10606;BME280;5350;42.698;23.148;2023-03-20T01:25:11;93891.72;;;5.58;81.53
10606;BME280;5350;42.698;23.148;2023-03-20T01:27:38;93895.66;;;5.60;81.70
10606;BME280;5350;42.698;23.148;2023-03-20T01:30:16;93882.03;;;5.48;81.90
10606;BME280;5350;42.698;23.148;2023-03-20T01:32:43;93880.47;;;5.52;81.96
10606;BME280;5350;42.698;23.148;2023-03-20T01:35:12;93888.50;;;5.46;81.92
10606;BME280;5350;42.698;23.148;2023-03-20T01:37:40;93888.22;;;5.42;81.54
10606;BME280;5350;42.698;23.148;2023-03-20T01:40:15;93890.41;;;5.55;80.65
10606;BME280;5350;42.698;23.148;2023-03-20T01:42:45;93889.84;;;5.53;79.35
10606;BME280;5350;42.698;23.148;2023-03-20T01:45:15;93887.00;;;5.55;78.81
10606;BME280;5350;42.698;23.148;2023-03-20T01:47:43;93896.63;;;5.49;79.24
10606;BME280;5350;42.698;23.148;2023-03-20T01:50:24;93900.84;;;5.55;79.88
10606;BME280;5350;42.698;23.148;2023-03-20T01:53:02;93901.38;;;5.57;79.81
10606;BME280;5350;42.698;23.148;2023-03-20T01:55:30;93890.38;;;5.50;79.99
10606;BME280;5350;42.698;23.148;2023-03-20T01:57:59;93897.16;;;5.51;79.63
10606;BME280;5350;42.698;23.148;2023-03-20T02:00:28;93884.97;;;5.62;78.40
10606;BME280;5350;42.698;23.148;2023-03-20T02:02:55;93890.44;;;5.60;79.06
10606;BME280;5350;42.698;23.148;2023-03-20T02:05:23;93888.31;;;5.57;78.66
10606;BME280;5350;42.698;23.148;2023-03-20T02:07:58;93891.59;;;5.38;79.68
10606;BME280;5350;42.698;23.148;2023-03-20T02:10:28;93895.44;;;5.67;78.80
10606;BME280;5350;42.698;23.148;2023-03-20T02:12:55;93893.59;;;5.67;79.38
10606;BME280;5350;42.698;23.148;2023-03-20T02:15:25;93897.53;;;5.70;79.55
10606;BME280;5350;42.698;23.148;2023-03-20T02:17:52;93888.31;;;5.57;79.76
10606;BME280;5350;42.698;23.148;2023-03-20T02:20:32;93895.72;;;5.71;79.06
10606;BME280;5350;42.698;23.148;2023-03-20T02:23:27;93897.00;;;5.68;79.50
10606;BME280;5350;42.698;23.148;2023-03-20T02:26:20;93882.06;;;5.58;78.21
10606;BME280;5350;42.698;23.148;2023-03-20T02:32:17;93893.38;;;5.69;77.87
10606;BME280;5350;42.698;23.148;2023-03-20T02:41:05;93880.31;;;5.69;77.45
10606;BME280;5350;42.698;23.148;2023-03-20T02:43:42;93878.72;;;5.63;78.57
10606;BME280;5350;42.698;23.148;2023-03-20T02:46:14;93883.84;;;5.48;79.32
10606;BME280;5350;42.698;23.148;2023-03-20T02:48:51;93886.78;;;5.25;81.77
10606;BME280;5350;42.698;23.148;2023-03-20T02:51:25;93897.28;;;5.30;82.00
10606;BME280;5350;42.698;23.148;2023-03-20T02:54:02;93890.75;;;5.32;81.79
10606;BME280;5350;42.698;23.148;2023-03-20T02:56:36;93887.72;;;5.45;81.09
10606;BME280;5350;42.698;23.148;2023-03-20T02:59:12;93881.44;;;5.41;81.04
10606;BME280;5350;42.698;23.148;2023-03-20T03:01:43;93883.13;;;5.26;81.18
10606;BME280;5350;42.698;23.148;2023-03-20T03:04:16;93885.31;;;5.34;81.34
10606;BME280;5350;42.698;23.148;2023-03-20T03:06:46;93882.16;;;5.32;82.03
10606;BME280;5350;42.698;23.148;2023-03-20T03:09:19;93888.97;;;5.38;81.18
10606;BME280;5350;42.698;23.148;2023-03-20T03:11:52;93905.88;;;5.30;81.75
10606;BME280;5350;42.698;23.148;2023-03-20T03:14:28;93888.59;;;5.19;82.29
10606;BME280;5350;42.698;23.148;2023-03-20T03:16:57;93881.44;;;5.05;82.22
10606;BME280;5350;42.698;23.148;2023-03-20T03:19:27;93883.84;;;5.16;83.04
10606;BME280;5350;42.698;23.148;2023-03-20T03:21:54;93876.97;;;5.05;84.09
10606;BME280;5350;42.698;23.148;2023-03-20T03:24:29;93883.81;;;5.11;83.99
10606;BME280;5350;42.698;23.148;2023-03-20T03:26:58;93883.56;;;5.13;84.49
10606;BME280;5350;42.698;23.148;2023-03-20T03:29:32;93884.50;;;5.02;84.79
10606;BME280;5350;42.698;23.148;2023-03-20T03:32:00;93872.13;;;4.87;85.47
10606;BME280;5350;42.698;23.148;2023-03-20T03:34:29;93883.25;;;5.09;83.31
10606;BME280;5350;42.698;23.148;2023-03-20T03:37:00;93879.03;;;4.98;84.49
10606;BME280;5350;42.698;23.148;2023-03-20T03:39:35;93872.50;;;5.01;84.60
10606;BME280;5350;42.698;23.148;2023-03-20T03:42:09;93887.91;;;5.02;85.43
10606;BME280;5350;42.698;23.148;2023-03-20T03:44:46;93885.16;;;4.87;85.90
10606;BME280;5350;42.698;23.148;2023-03-20T03:47:17;93881.03;;;4.91;85.32
10606;BME280;5350;42.698;23.148;2023-03-20T03:49:48;93874.50;;;4.88;86.38
10606;BME280;5350;42.698;23.148;2023-03-20T03:52:19;93867.47;;;4.89;86.25
10606;BME280;5350;42.698;23.148;2023-03-20T03:54:50;93870.59;;;4.91;86.71
10606;BME280;5350;42.698;23.148;2023-03-20T03:57:21;93872.22;;;4.97;86.07
10606;BME280;5350;42.698;23.148;2023-03-20T03:59:51;93873.28;;;4.96;85.82
10606;BME280;5350;42.698;23.148;2023-03-20T04:02:21;93862.97;;;4.84;86.61
10606;BME280;5350;42.698;23.148;2023-03-20T04:04:50;93866.94;;;4.87;87.25
10606;BME280;5350;42.698;23.148;2023-03-20T04:07:18;93873.22;;;4.91;86.25
10606;BME280;5350;42.698;23.148;2023-03-20T04:09:46;93866.38;;;4.85;86.13
10606;BME280;5350;42.698;23.148;2023-03-20T04:12:33;93858.03;;;4.83;86.46
10606;BME280;5350;42.698;23.148;2023-03-20T04:15:00;93850.13;;;4.73;86.76
10606;BME280;5350;42.698;23.148;2023-03-20T04:17:27;93849.06;;;4.69;87.08
10606;BME280;5350;42.698;23.148;2023-03-20T04:19:55;93846.47;;;4.74;87.74
10606;BME280;5350;42.698;23.148;2023-03-20T04:22:21;93854.38;;;4.84;87.18
10606;BME280;5350;42.698;23.148;2023-03-20T04:24:48;93852.81;;;4.83;86.91
10606;BME280;5350;42.698;23.148;2023-03-20T04:27:15;93853.88;;;4.87;85.95
10606;BME280;5350;42.698;23.148;2023-03-20T04:29:43;93861.09;;;4.75;86.15
10606;BME280;5350;42.698;23.148;2023-03-20T04:32:10;93870.81;;;4.58;87.20
10606;BME280;5350;42.698;23.148;2023-03-20T04:34:37;93873.53;;;4.68;87.22
10606;BME280;5350;42.698;23.148;2023-03-20T04:37:04;93872.28;;;4.49;87.12
10606;BME280;5350;42.698;23.148;2023-03-20T04:39:33;93863.00;;;4.10;88.88
10606;BME280;5350;42.698;23.148;2023-03-20T04:42:01;93881.69;;;4.28;89.04
10606;BME280;5350;42.698;23.148;2023-03-20T04:44:28;93881.47;;;4.30;89.69
10606;BME280;5350;42.698;23.148;2023-03-20T04:46:56;93891.81;;;4.25;90.24
10606;BME280;5350;42.698;23.148;2023-03-20T04:49:23;93889.53;;;4.55;88.99
10606;BME280;5350;42.698;23.148;2023-03-20T04:51:50;93892.28;;;4.65;89.06
10606;BME280;5350;42.698;23.148;2023-03-20T04:54:17;93891.75;;;4.68;89.63
10606;BME280;5350;42.698;23.148;2023-03-20T04:56:44;93890.28;;;4.77;89.26
10606;BME280;5350;42.698;23.148;2023-03-20T04:59:10;93897.81;;;4.73;90.01
10606;BME280;5350;42.698;23.148;2023-03-20T05:01:37;93896.03;;;4.79;90.32
10606;BME280;5350;42.698;23.148;2023-03-20T05:04:05;93901.34;;;4.89;89.60
10606;BME280;5350;42.698;23.148;2023-03-20T05:06:33;93894.31;;;4.90;90.55
10606;BME280;5350;42.698;23.148;2023-03-20T05:09:00;93907.38;;;4.68;91.25
10606;BME280;5350;42.698;23.148;2023-03-20T05:11:27;93899.72;;;4.83;91.46
10606;BME280;5350;42.698;23.148;2023-03-20T05:13:54;93907.97;;;5.02;90.16
10606;BME280;5350;42.698;23.148;2023-03-20T05:16:21;93905.19;;;5.13;89.77
10606;BME280;5350;42.698;23.148;2023-03-20T05:18:48;93909.97;;;5.21;89.85
10606;BME280;5350;42.698;23.148;2023-03-20T05:21:16;93906.84;;;5.19;89.53
10606;BME280;5350;42.698;23.148;2023-03-20T05:23:43;93913.75;;;5.40;88.81
10606;BME280;5350;42.698;23.148;2023-03-20T05:26:09;93915.88;;;5.43;87.75
10606;BME280;5350;42.698;23.148;2023-03-20T05:28:36;93911.19;;;5.45;85.30
10606;BME280;5350;42.698;23.148;2023-03-20T05:31:03;93916.16;;;5.47;85.29
10606;BME280;5350;42.698;23.148;2023-03-20T05:33:30;93910.06;;;5.68;83.78
10606;BME280;5350;42.698;23.148;2023-03-20T05:35:57;93911.31;;;5.60;83.09
10606;BME280;5350;42.698;23.148;2023-03-20T05:38:25;93912.34;;;5.59;82.66
10606;BME280;5350;42.698;23.148;2023-03-20T05:40:55;93914.56;;;5.78;82.45
10606;BME280;5350;42.698;23.148;2023-03-20T05:43:23;93911.78;;;5.89;82.07
10606;BME280;5350;42.698;23.148;2023-03-20T05:45:49;93913.16;;;6.02;81.87
10606;BME280;5350;42.698;23.148;2023-03-20T05:48:16;93910.06;;;6.10;79.85
10606;BME280;5350;42.698;23.148;2023-03-20T05:50:43;93909.88;;;6.26;80.73
10606;BME280;5350;42.698;23.148;2023-03-20T05:53:10;93905.47;;;6.37;78.98
10606;BME280;5350;42.698;23.148;2023-03-20T05:55:38;93908.66;;;6.49;78.91
10606;BME280;5350;42.698;23.148;2023-03-20T05:58:06;93874.91;;;6.37;78.36
10606;BME280;5350;42.698;23.148;2023-03-20T06:00:32;93913.44;;;6.72;78.65
10606;BME280;5350;42.698;23.148;2023-03-20T06:02:59;93913.72;;;6.86;78.65
10606;BME280;5350;42.698;23.148;2023-03-20T06:05:26;93911.13;;;6.96;77.33
10606;BME280;5350;42.698;23.148;2023-03-20T06:07:52;93912.72;;;7.12;77.61
10606;BME280;5350;42.698;23.148;2023-03-20T06:10:19;93907.78;;;7.25;77.82
10606;BME280;5350;42.698;23.148;2023-03-20T06:12:48;93904.09;;;7.37;77.48
10606;BME280;5350;42.698;23.148;2023-03-20T06:15:15;93906.19;;;7.50;75.02
10606;BME280;5350;42.698;23.148;2023-03-20T06:17:41;93901.47;;;7.57;71.83
10606;BME280;5350;42.698;23.148;2023-03-20T06:20:09;93897.81;;;7.78;70.71
10606;BME280;5350;42.698;23.148;2023-03-20T06:22:36;93904.31;;;7.90;69.92
10606;BME280;5350;42.698;23.148;2023-03-20T06:25:03;93905.34;;;7.99;69.01
10606;BME280;5350;42.698;23.148;2023-03-20T06:27:30;93905.03;;;8.21;66.80
10606;BME280;5350;42.698;23.148;2023-03-20T06:29:58;93908.44;;;8.32;64.63
10606;BME280;5350;42.698;23.148;2023-03-20T06:32:24;93910.78;;;8.33;64.68
10606;BME280;5350;42.698;23.148;2023-03-20T06:34:51;93912.28;;;8.49;63.93
10606;BME280;5350;42.698;23.148;2023-03-20T06:37:18;93908.84;;;8.54;64.94
10606;BME280;5350;42.698;23.148;2023-03-20T06:39:46;93911.94;;;8.66;64.96
10606;BME280;5350;42.698;23.148;2023-03-20T06:42:13;93914.03;;;8.74;64.46
10606;BME280;5350;42.698;23.148;2023-03-20T06:44:40;93908.72;;;8.84;64.82
10606;BME280;5350;42.698;23.148;2023-03-20T06:47:08;93910.19;;;9.05;62.28
10606;BME280;5350;42.698;23.148;2023-03-20T06:49:34;93910.88;;;9.16;64.19
10606;BME280;5350;42.698;23.148;2023-03-20T06:52:01;93907.91;;;9.32;62.97
10606;BME280;5350;42.698;23.148;2023-03-20T06:54:28;93914.38;;;9.45;64.03
10606;BME280;5350;42.698;23.148;2023-03-20T06:56:55;93901.34;;;9.63;62.89
10606;BME280;5350;42.698;23.148;2023-03-20T06:59:21;93896.22;;;9.77;61.52
10606;BME280;5350;42.698;23.148;2023-03-20T07:01:49;93909.50;;;9.91;62.30
10606;BME280;5350;42.698;23.148;2023-03-20T07:04:18;93895.69;;;10.04;62.19
10606;BME280;5350;42.698;23.148;2023-03-20T07:06:44;93897.50;;;10.08;64.40
10606;BME280;5350;42.698;23.148;2023-03-20T07:09:11;93892.09;;;10.23;62.47
10606;BME280;5350;42.698;23.148;2023-03-20T07:11:38;93888.25;;;10.39;62.03
10606;BME280;5350;42.698;23.148;2023-03-20T07:14:05;93896.78;;;10.50;61.67
10606;BME280;5350;42.698;23.148;2023-03-20T07:16:32;93893.78;;;10.62;62.27
10606;BME280;5350;42.698;23.148;2023-03-20T07:18:59;93897.81;;;10.73;63.98
10606;BME280;5350;42.698;23.148;2023-03-20T07:21:28;93900.63;;;10.81;63.38
10606;BME280;5350;42.698;23.148;2023-03-20T07:23:56;93898.06;;;10.95;63.24
10606;BME280;5350;42.698;23.148;2023-03-20T07:26:22;93901.91;;;11.02;60.58
10606;BME280;5350;42.698;23.148;2023-03-20T07:28:50;93900.47;;;11.28;61.17
10606;BME280;5350;42.698;23.148;2023-03-20T07:31:21;93903.41;;;11.27;62.33
10606;BME280;5350;42.698;23.148;2023-03-20T07:33:48;93901.69;;;11.36;60.94
10606;BME280;5350;42.698;23.148;2023-03-20T07:36:15;93908.44;;;11.42;61.89
10606;BME280;5350;42.698;23.148;2023-03-20T07:38:43;93904.84;;;11.52;61.17
10606;BME280;5350;42.698;23.148;2023-03-20T07:41:10;93900.81;;;11.59;60.99
10606;BME280;5350;42.698;23.148;2023-03-20T07:43:36;93903.22;;;11.74;60.38
10606;BME280;5350;42.698;23.148;2023-03-20T07:46:04;93902.75;;;11.86;59.20
10606;BME280;5350;42.698;23.148;2023-03-20T07:48:31;93893.50;;;11.88;59.40
10606;BME280;5350;42.698;23.148;2023-03-20T07:50:58;93905.63;;;12.03;57.41
10606;BME280;5350;42.698;23.148;2023-03-20T07:53:25;93900.38;;;12.17;57.57
10606;BME280;5350;42.698;23.148;2023-03-20T07:55:53;93904.81;;;12.35;58.07
10606;BME280;5350;42.698;23.148;2023-03-20T07:58:19;93903.41;;;12.37;57.39
10606;BME280;5350;42.698;23.148;2023-03-20T08:00:46;93900.00;;;12.50;55.88
10606;BME280;5350;42.698;23.148;2023-03-20T08:03:13;93894.53;;;12.60;56.71
10606;BME280;5350;42.698;23.148;2023-03-20T08:05:40;93899.91;;;12.82;56.10
10606;BME280;5350;42.698;23.148;2023-03-20T08:08:07;93896.84;;;12.89;55.03
10606;BME280;5350;42.698;23.148;2023-03-20T08:10:34;93903.59;;;12.95;54.26
10606;BME280;5350;42.698;23.148;2023-03-20T08:13:02;93895.56;;;13.14;55.52
10606;BME280;5350;42.698;23.148;2023-03-20T08:15:29;93888.88;;;13.16;55.07
10606;BME280;5350;42.698;23.148;2023-03-20T08:17:55;93902.13;;;13.38;52.74
10606;BME280;5350;42.698;23.148;2023-03-20T08:20:23;93898.31;;;13.31;52.35
10606;BME280;5350;42.698;23.148;2023-03-20T08:22:50;93911.13;;;13.37;53.03
10606;BME280;5350;42.698;23.148;2023-03-20T08:25:17;93912.41;;;13.40;54.29
10606;BME280;5350;42.698;23.148;2023-03-20T08:27:44;93910.31;;;13.50;53.05
10606;BME280;5350;42.698;23.148;2023-03-20T08:30:13;93909.66;;;13.67;52.27
10606;BME280;5350;42.698;23.148;2023-03-20T08:32:40;93901.06;;;13.84;51.57
10606;BME280;5350;42.698;23.148;2023-03-20T08:35:08;93909.22;;;13.96;50.27
10606;BME280;5350;42.698;23.148;2023-03-20T08:37:35;93913.16;;;14.07;49.60
10606;BME280;5350;42.698;23.148;2023-03-20T08:40:03;93897.00;;;14.08;49.29
10606;BME280;5350;42.698;23.148;2023-03-20T08:42:31;93906.41;;;14.23;50.44
10606;BME280;5350;42.698;23.148;2023-03-20T08:44:57;93908.44;;;14.26;49.32
10606;BME280;5350;42.698;23.148;2023-03-20T08:47:26;93906.13;;;14.55;47.20
10606;BME280;5350;42.698;23.148;2023-03-20T08:49:52;93902.69;;;14.55;49.64
10606;BME280;5350;42.698;23.148;2023-03-20T08:52:19;93895.78;;;14.84;47.07
10606;BME280;5350;42.698;23.148;2023-03-20T08:54:46;93894.56;;;14.99;48.17
10606;BME280;5350;42.698;23.148;2023-03-20T08:57:12;93899.72;;;15.12;46.94
10606;BME280;5350;42.698;23.148;2023-03-20T08:59:39;93894.91;;;15.32;47.66
10606;BME280;5350;42.698;23.148;2023-03-20T09:02:06;93893.84;;;15.58;47.19
10606;BME280;5350;42.698;23.148;2023-03-20T09:04:34;93892.56;;;15.73;46.19
10606;BME280;5350;42.698;23.148;2023-03-20T09:07:01;93891.81;;;15.89;46.32
10606;BME280;5350;42.698;23.148;2023-03-20T09:09:28;93878.19;;;16.08;44.97
10606;BME280;5350;42.698;23.148;2023-03-20T09:11:55;93883.56;;;16.29;45.41
10606;BME280;5350;42.698;23.148;2023-03-20T09:14:22;93880.38;;;16.44;44.22
10606;BME280;5350;42.698;23.148;2023-03-20T09:16:50;93877.69;;;16.61;42.96
10606;BME280;5350;42.698;23.148;2023-03-20T09:19:17;93870.59;;;16.73;42.71
10606;BME280;5350;42.698;23.148;2023-03-20T09:21:46;93862.16;;;17.01;43.19
10606;BME280;5350;42.698;23.148;2023-03-20T09:24:13;93867.50;;;17.21;42.17
10606;BME280;5350;42.698;23.148;2023-03-20T09:26:40;93862.84;;;17.39;42.13
10606;BME280;5350;42.698;23.148;2023-03-20T09:29:07;93857.91;;;17.70;43.36
10606;BME280;5350;42.698;23.148;2023-03-20T09:31:34;93848.91;;;17.95;42.57
10606;BME280;5350;42.698;23.148;2023-03-20T09:34:00;93849.38;;;18.09;40.60
10606;BME280;5350;42.698;23.148;2023-03-20T09:36:27;93850.72;;;18.15;40.58
10606;BME280;5350;42.698;23.148;2023-03-20T09:38:55;93838.84;;;18.13;39.38
10606;BME280;5350;42.698;23.148;2023-03-20T09:41:23;93842.97;;;18.10;39.57
10606;BME280;5350;42.698;23.148;2023-03-20T09:44:04;93835.53;;;18.28;40.01
10606;BME280;5350;42.698;23.148;2023-03-20T09:46:48;93830.56;;;18.38;40.33
10606;BME280;5350;42.698;23.148;2023-03-20T09:49:26;93824.16;;;18.52;38.85
10606;BME280;5350;42.698;23.148;2023-03-20T09:51:57;93821.28;;;18.69;40.26
10606;BME280;5350;42.698;23.148;2023-03-20T09:54:27;93826.78;;;18.88;38.16
10606;BME280;5350;42.698;23.148;2023-03-20T09:56:56;93821.28;;;18.81;39.64
10606;BME280;5350;42.698;23.148;2023-03-20T09:59:24;93810.38;;;18.98;39.23
10606;BME280;5350;42.698;23.148;2023-03-20T10:01:54;93800.91;;;19.12;38.27
10606;BME280;5350;42.698;23.148;2023-03-20T10:04:24;93794.06;;;19.39;38.32
10606;BME280;5350;42.698;23.148;2023-03-20T10:06:52;93801.72;;;19.29;35.87
10606;BME280;5350;42.698;23.148;2023-03-20T10:09:21;93794.94;;;19.43;35.93
10606;BME280;5350;42.698;23.148;2023-03-20T10:12:05;93799.34;;;19.51;35.74
10606;BME280;5350;42.698;23.148;2023-03-20T10:14:44;93784.84;;;19.80;36.59
10606;BME280;5350;42.698;23.148;2023-03-20T10:17:28;93782.75;;;20.01;35.73
10606;BME280;5350;42.698;23.148;2023-03-20T10:20:18;93780.72;;;20.26;35.25
10606;BME280;5350;42.698;23.148;2023-03-20T10:22:52;93778.03;;;20.26;34.11
10606;BME280;5350;42.698;23.148;2023-03-20T10:25:27;93772.88;;;20.33;34.13
10606;BME280;5350;42.698;23.148;2023-03-20T10:27:59;93770.72;;;20.38;34.46
10606;BME280;5350;42.698;23.148;2023-03-20T10:30:35;93766.97;;;20.74;33.85
10606;BME280;5350;42.698;23.148;2023-03-20T10:33:18;93757.09;;;20.94;33.82
10606;BME280;5350;42.698;23.148;2023-03-20T10:36:00;93764.38;;;21.12;34.39
10606;BME280;5350;42.698;23.148;2023-03-20T10:38:37;93758.47;;;21.03;33.17
10606;BME280;5350;42.698;23.148;2023-03-20T10:41:12;93760.66;;;21.55;34.51
10606;BME280;5350;42.698;23.148;2023-03-20T10:43:42;93759.09;;;21.73;33.52
10606;BME280;5350;42.698;23.148;2023-03-20T10:46:12;93752.97;;;21.92;33.00
10606;BME280;5350;42.698;23.148;2023-03-20T10:48:44;93742.78;;;22.23;33.60
10606;BME280;5350;42.698;23.148;2023-03-20T10:51:14;93738.66;;;22.30;31.00
10606;BME280;5350;42.698;23.148;2023-03-20T10:53:45;93739.66;;;22.44;30.90
10606;BME280;5350;42.698;23.148;2023-03-20T10:56:15;93745.06;;;22.48;30.09
10606;BME280;5350;42.698;23.148;2023-03-20T10:58:49;93733.88;;;22.65;29.74
10606;BME280;5350;42.698;23.148;2023-03-20T11:01:20;93725.66;;;22.80;29.05
10606;BME280;5350;42.698;23.148;2023-03-20T11:03:47;93728.41;;;23.14;28.92
10606;BME280;5350;42.698;23.148;2023-03-20T11:06:18;93727.44;;;23.29;28.76
10606;BME280;5350;42.698;23.148;2023-03-20T11:08:48;93712.66;;;23.38;28.60
10606;BME280;5350;42.698;23.148;2023-03-20T11:11:21;93717.19;;;23.34;28.85
10606;BME280;5350;42.698;23.148;2023-03-20T11:13:49;93712.22;;;23.07;28.07
10606;BME280;5350;42.698;23.148;2023-03-20T11:16:19;93711.28;;;22.92;28.64
10606;BME280;5350;42.698;23.148;2023-03-20T11:18:47;93690.13;;;22.87;29.21
10606;BME280;5350;42.698;23.148;2023-03-20T11:21:18;93699.88;;;22.46;28.22
10606;BME280;5350;42.698;23.148;2023-03-20T11:23:45;93696.78;;;22.70;28.65
10606;BME280;5350;42.698;23.148;2023-03-20T11:26:13;93687.16;;;22.95;29.10
10606;BME280;5350;42.698;23.148;2023-03-20T11:28:46;93699.81;;;23.28;28.13
10606;BME280;5350;42.698;23.148;2023-03-20T11:31:18;93686.78;;;23.60;28.70
10606;BME280;5350;42.698;23.148;2023-03-20T11:33:50;93684.69;;;23.79;26.99
10606;BME280;5350;42.698;23.148;2023-03-20T11:36:24;93681.41;;;24.00;26.92
10606;BME280;5350;42.698;23.148;2023-03-20T11:38:52;93678.84;;;24.11;26.35
10606;BME280;5350;42.698;23.148;2023-03-20T11:41:24;93659.97;;;24.04;27.39
10606;BME280;5350;42.698;23.148;2023-03-20T11:43:52;93660.91;;;24.25;27.57
10606;BME280;5350;42.698;23.148;2023-03-20T11:46:22;93663.59;;;24.25;26.10
10606;BME280;5350;42.698;23.148;2023-03-20T11:49:03;93650.94;;;24.26;27.09
10606;BME280;5350;42.698;23.148;2023-03-20T11:51:31;93651.44;;;24.42;26.82
10606;BME280;5350;42.698;23.148;2023-03-20T11:54:02;93647.03;;;24.74;26.33
10606;BME280;5350;42.698;23.148;2023-03-20T11:56:30;93644.88;;;25.08;25.03
10606;BME280;5350;42.698;23.148;2023-03-20T11:59:01;93641.88;;;25.30;24.58
10606;BME280;5350;42.698;23.148;2023-03-20T12:01:39;93644.22;;;25.39;27.45
10606;BME280;5350;42.698;23.148;2023-03-20T12:04:13;93642.72;;;25.45;25.56
10606;BME280;5350;42.698;23.148;2023-03-20T12:06:45;93630.81;;;25.50;25.12
10606;BME280;5350;42.698;23.148;2023-03-20T12:09:34;93625.09;;;25.79;25.39
10606;BME280;5350;42.698;23.148;2023-03-20T12:12:06;93622.78;;;25.92;24.51
10606;BME280;5350;42.698;23.148;2023-03-20T12:14:42;93626.25;;;25.85;23.07
10606;BME280;5350;42.698;23.148;2023-03-20T12:17:37;93615.47;;;25.96;22.97
10606;BME280;5350;42.698;23.148;2023-03-20T12:20:13;93610.09;;;25.92;23.20
10606;BME280;5350;42.698;23.148;2023-03-20T12:22:48;93615.88;;;26.08;22.17
10606;BME280;5350;42.698;23.148;2023-03-20T12:25:20;93616.25;;;26.07;21.75
10606;BME280;5350;42.698;23.148;2023-03-20T12:28:00;93605.88;;;26.12;22.85
10606;BME280;5350;42.698;23.148;2023-03-20T12:30:39;93600.75;;;26.71;24.29
10606;BME280;5350;42.698;23.148;2023-03-20T12:33:14;93605.25;;;27.09;22.60
10606;BME280;5350;42.698;23.148;2023-03-20T12:35:45;93599.13;;;27.05;21.82
10606;BME280;5350;42.698;23.148;2023-03-20T12:38:20;93598.63;;;27.35;22.59
10606;BME280;5350;42.698;23.148;2023-03-20T12:40:50;93592.94;;;27.74;22.29
10606;BME280;5350;42.698;23.148;2023-03-20T12:43:24;93596.16;;;27.54;21.78
10606;BME280;5350;42.698;23.148;2023-03-20T12:45:55;93590.34;;;27.56;21.01
10606;BME280;5350;42.698;23.148;2023-03-20T12:48:49;93580.66;;;27.62;21.77
10606;BME280;5350;42.698;23.148;2023-03-20T12:51:25;93579.84;;;27.72;21.38
10606;BME280;5350;42.698;23.148;2023-03-20T12:54:06;93581.81;;;27.64;20.70
10606;BME280;5350;42.698;23.148;2023-03-20T12:56:59;93576.25;;;27.24;20.75
10606;BME280;5350;42.698;23.148;2023-03-20T12:59:33;93573.19;;;27.18;20.74
10606;BME280;5350;42.698;23.148;2023-03-20T13:02:21;93559.22;;;27.37;20.54
10606;BME280;5350;42.698;23.148;2023-03-20T13:04:57;93563.47;;;27.38;20.92
10606;BME280;5350;42.698;23.148;2023-03-20T13:07:42;93556.66;;;27.09;21.07
10606;BME280;5350;42.698;23.148;2023-03-20T13:10:19;93554.25;;;27.25;20.89
10606;BME280;5350;42.698;23.148;2023-03-20T13:12:58;93545.84;;;27.75;20.62
10606;BME280;5350;42.698;23.148;2023-03-20T13:15:37;93532.97;;;27.89;20.51
10606;BME280;5350;42.698;23.148;2023-03-20T13:18:11;93542.47;;;27.63;20.73
10606;BME280;5350;42.698;23.148;2023-03-20T13:20:44;93542.22;;;27.92;20.48
10606;BME280;5350;42.698;23.148;2023-03-20T13:23:20;93534.97;;;27.82;20.25
10606;BME280;5350;42.698;23.148;2023-03-20T13:26:02;93537.22;;;27.90;20.15
10606;BME280;5350;42.698;23.148;2023-03-20T13:28:35;93526.28;;;27.56;21.19
10606;BME280;5350;42.698;23.148;2023-03-20T13:31:15;93534.22;;;27.26;21.53